createdAt,value
2022-09-03T00:00:51.373Z,16.31
2022-09-03T00:01:51.387Z,16.33
2022-09-03T00:02:51.418Z,16.30
2022-09-03T00:03:51.335Z,16.26
2022-09-03T00:04:51.329Z,16.25
2022-09-03T00:05:51.301Z,16.18
2022-09-03T00:06:51.330Z,16.18
2022-09-03T00:07:51.292Z,16.15
2022-09-03T00:08:51.275Z,16.14
2022-09-03T00:09:51.258Z,16.14
2022-09-03T00:10:51.273Z,16.14
2022-09-03T00:11:51.268Z,16.09
2022-09-03T00:12:51.247Z,16.11
2022-09-03T18:23:16.085Z,18.02
2022-09-03T18:24:17.071Z,17.95
2022-09-03T18:25:17.031Z,17.94
2022-09-03T18:26:17.009Z,17.94
2022-09-03T18:27:17.009Z,17.94
2022-09-03T18:28:16.988Z,17.91
2022-09-03T18:29:17.015Z,17.91
2022-09-03T18:30:16.978Z,17.89
2022-09-03T18:31:17.004Z,17.88
2022-09-03T18:32:16.965Z,17.87
2022-09-03T18:33:16.954Z,17.84
2022-09-03T18:34:16.959Z,17.85
2022-09-03T18:35:16.913Z,17.82
2022-09-03T18:36:16.920Z,17.84
2022-09-03T18:37:16.902Z,17.85
2022-09-03T18:38:16.900Z,17.85
2022-09-03T18:39:16.891Z,17.85
2022-09-03T18:40:16.866Z,17.87
2022-09-03T18:41:17.265Z,17.87
2022-09-03T18:42:17.945Z,17.87
2022-09-03T18:43:17.191Z,17.89
2022-09-03T18:44:17.385Z,17.85
2022-09-03T18:45:24.337Z,17.87
2022-09-03T18:47:00.391Z,17.85
2022-09-03T18:48:01.456Z,17.82
2022-09-03T18:48:20.505Z,17.82
2022-09-03T18:49:16.919Z,17.82
2022-09-03T18:50:16.771Z,17.81
2022-09-03T18:51:16.912Z,17.81
2022-09-03T18:52:16.736Z,17.78
2022-09-03T18:53:16.737Z,17.76
2022-09-03T18:54:16.746Z,17.76
2022-09-03T18:55:16.702Z,17.76
2022-09-03T18:56:16.709Z,17.76
2022-09-03T18:57:16.699Z,17.76
2022-09-03T18:58:16.682Z,17.76
2022-09-03T18:59:16.680Z,17.76
2022-09-03T19:00:16.664Z,17.76
2022-09-03T19:01:16.689Z,17.79
2022-09-03T19:02:16.789Z,17.76
2022-09-03T19:03:16.686Z,17.78
2022-09-03T19:04:16.900Z,17.79
2022-09-03T19:05:16.594Z,17.78
2022-09-03T19:06:16.839Z,17.76
2022-09-03T19:07:16.576Z,17.74
2022-09-03T19:08:16.568Z,17.71
2022-09-03T19:09:16.894Z,17.67
2022-09-03T19:10:16.556Z,17.66
2022-09-03T19:11:16.547Z,17.63
2022-09-03T19:12:16.536Z,17.59
2022-09-03T19:13:16.596Z,17.59
2022-09-03T19:14:16.573Z,17.55
2022-09-03T19:15:16.493Z,17.54
2022-09-03T19:16:16.588Z,17.48
2022-09-03T19:17:19.871Z,17.46
2022-09-03T19:18:16.493Z,17.44
2022-09-03T19:19:16.479Z,17.43
2022-09-03T19:20:16.462Z,17.43
2022-09-03T19:21:17.485Z,17.44
2022-09-03T19:22:16.420Z,17.44
2022-09-03T19:23:16.428Z,17.44
2022-09-03T19:24:17.551Z,17.44
2022-09-03T19:25:16.385Z,17.44
2022-09-03T19:26:16.442Z,17.44
2022-09-03T19:27:39.108Z,17.46
2022-09-03T19:28:21.382Z,17.47
2022-09-03T19:29:16.382Z,17.46
2022-09-03T19:30:16.354Z,17.46
2022-09-03T19:31:16.389Z,17.44
2022-09-03T19:32:16.315Z,17.48
2022-09-03T19:33:16.302Z,17.46
2022-09-03T19:34:16.331Z,17.44
2022-09-03T19:35:16.279Z,17.46
2022-09-03T19:36:16.267Z,17.43
2022-09-03T19:37:16.281Z,17.41
2022-09-03T19:38:16.262Z,17.41
2022-09-03T19:39:16.262Z,17.41
2022-09-03T19:40:16.225Z,17.40
2022-09-03T19:41:16.233Z,17.38
2022-09-03T19:42:16.217Z,17.38
2022-09-03T19:43:16.214Z,17.38
2022-09-03T19:44:16.214Z,17.36
2022-09-03T19:45:16.180Z,17.33
2022-09-03T19:46:16.274Z,17.30
2022-09-03T19:47:16.169Z,17.29
2022-09-03T19:48:16.154Z,17.28
2022-09-03T19:49:16.853Z,17.26
2022-09-03T19:50:16.131Z,17.25
2022-09-03T19:51:16.124Z,17.22
2022-09-03T19:52:16.118Z,17.22
2022-09-03T19:53:16.092Z,17.20
2022-09-03T19:54:16.110Z,17.20
2022-09-03T19:55:16.091Z,17.18
2022-09-03T19:56:16.056Z,17.15
2022-09-03T19:57:16.051Z,17.15
2022-09-03T19:58:39.238Z,17.14
2022-09-03T19:59:16.067Z,17.14
2022-09-03T20:00:16.030Z,17.14
2022-09-03T20:01:16.043Z,17.14
2022-09-03T20:02:16.226Z,17.13
2022-09-03T20:03:15.989Z,17.14
2022-09-03T20:04:15.993Z,17.11
2022-09-03T20:05:15.966Z,17.10
2022-09-03T20:06:15.963Z,17.10
2022-09-03T20:07:15.948Z,17.08
2022-09-03T20:08:15.963Z,17.08
2022-09-03T20:09:15.951Z,17.08
2022-09-03T20:10:15.920Z,17.06
2022-09-03T20:11:15.917Z,17.06
2022-09-03T20:12:15.888Z,17.06
2022-09-03T20:13:15.891Z,17.04
2022-09-03T20:14:15.899Z,16.99
2022-09-03T20:15:15.929Z,16.99
2022-09-03T20:16:15.900Z,16.99
2022-09-03T20:17:15.840Z,16.99
2022-09-03T20:18:15.835Z,16.99
2022-09-03T20:19:15.840Z,16.98
2022-09-03T20:20:15.815Z,16.98
2022-09-03T20:21:15.813Z,16.96
2022-09-03T20:22:15.782Z,16.98
2022-09-03T20:23:15.776Z,16.99
2022-09-03T20:24:15.800Z,16.99
2022-09-03T20:25:15.757Z,17.06
2022-09-03T20:26:15.755Z,17.08
2022-09-03T20:27:15.753Z,17.11
2022-09-03T20:28:15.738Z,17.13
2022-09-03T20:29:15.720Z,17.14
2022-09-03T20:30:15.721Z,17.15
2022-09-03T20:31:15.804Z,17.15
2022-09-03T20:32:15.677Z,17.15
2022-09-03T20:33:15.682Z,17.13
2022-09-03T20:34:15.704Z,17.13
2022-09-03T20:35:15.683Z,17.14
2022-09-03T20:36:15.642Z,17.11
2022-09-03T20:37:15.662Z,17.13
2022-09-03T20:38:15.626Z,17.11
2022-09-03T20:39:15.773Z,17.10
2022-09-03T20:40:15.629Z,17.10
2022-09-03T20:41:16.375Z,17.07
2022-09-03T20:42:15.643Z,17.06
2022-09-03T20:43:15.570Z,17.06
2022-09-03T20:44:15.549Z,17.04
2022-09-03T20:45:15.820Z,17.03
2022-09-03T20:46:15.578Z,17.00
2022-09-03T20:47:15.558Z,17.03
2022-09-03T20:48:15.518Z,17.00
2022-09-03T20:49:15.512Z,16.98
2022-09-03T20:50:15.509Z,16.96
2022-09-03T20:51:15.495Z,16.95
2022-09-03T20:52:15.487Z,16.93
2022-09-03T20:53:15.461Z,16.92
2022-09-03T20:54:15.444Z,16.88
2022-09-03T20:55:15.469Z,16.86
2022-09-03T20:56:15.436Z,16.85
2022-09-03T20:57:16.222Z,16.85
2022-09-03T20:58:15.403Z,16.83
2022-09-03T20:59:15.406Z,16.83
2022-09-03T21:00:15.419Z,16.83
2022-09-03T21:01:15.423Z,16.80
2022-09-03T21:02:15.401Z,16.80
2022-09-03T21:03:15.364Z,16.80
2022-09-03T21:04:15.340Z,16.80
2022-09-03T21:05:15.363Z,16.80
2022-09-03T21:06:15.333Z,16.78
2022-09-03T21:07:15.314Z,16.77
2022-09-03T21:08:16.363Z,16.77
2022-09-03T21:09:15.301Z,16.77
2022-09-03T21:10:15.321Z,16.81
2022-09-03T21:11:15.536Z,16.80
2022-09-03T21:12:15.258Z,16.81
2022-09-03T21:13:15.260Z,16.80
2022-09-03T21:14:15.248Z,16.83
2022-09-03T21:15:15.373Z,16.83
2022-09-03T21:16:15.332Z,16.83
2022-09-03T21:17:15.864Z,16.83
2022-09-03T21:18:15.193Z,16.85
2022-09-03T21:19:15.201Z,16.81
2022-09-03T21:20:16.156Z,16.83
2022-09-03T21:21:15.214Z,16.81
2022-09-03T21:22:15.156Z,16.80
2022-09-03T21:23:15.168Z,16.80
2022-09-03T21:24:15.162Z,16.80
2022-09-03T21:25:15.130Z,16.78
2022-09-03T21:26:15.110Z,16.74
2022-09-03T21:27:15.121Z,16.73
2022-09-03T21:28:15.173Z,16.71
2022-09-03T21:29:18.437Z,16.68
2022-09-03T21:30:15.131Z,16.67
2022-09-03T21:31:15.161Z,16.63
2022-09-03T21:32:15.057Z,16.60
2022-09-03T21:33:15.049Z,16.59
2022-09-03T21:34:15.084Z,16.58
2022-09-03T21:35:15.045Z,16.56
2022-09-03T21:36:15.054Z,16.56
2022-09-03T21:37:15.015Z,16.56
2022-09-03T21:38:14.994Z,16.53
2022-09-03T21:39:15.004Z,16.52
2022-09-03T21:40:14.972Z,16.50
2022-09-03T21:41:14.973Z,16.50
2022-09-03T21:42:14.950Z,16.50
2022-09-03T21:43:14.934Z,16.50
2022-09-03T21:44:14.939Z,16.50
2022-09-03T21:45:15.012Z,16.50
2022-09-03T21:46:14.944Z,16.48
2022-09-03T21:47:14.905Z,16.48
2022-09-03T21:48:14.890Z,16.44
2022-09-03T21:49:14.886Z,16.44
2022-09-03T21:50:16.819Z,16.44
2022-09-03T21:51:14.866Z,16.44
2022-09-03T21:52:14.836Z,16.42
2022-09-03T21:53:14.839Z,16.41
2022-09-03T21:54:14.833Z,16.40
2022-09-03T21:55:14.829Z,16.40
2022-09-03T21:56:14.796Z,16.40
2022-09-03T21:57:14.790Z,16.37
2022-09-03T21:58:14.791Z,16.37
2022-09-03T21:59:14.768Z,16.35
2022-09-03T22:00:14.788Z,16.37
2022-09-03T22:01:14.887Z,16.35
2022-09-03T22:02:14.790Z,16.35
2022-09-03T22:03:14.737Z,16.35
2022-09-03T22:04:14.723Z,16.34
2022-09-03T22:05:14.731Z,16.33
2022-09-03T22:06:14.704Z,16.31
2022-09-03T22:07:14.696Z,16.31
2022-09-03T22:08:14.679Z,16.31
2022-09-03T22:09:14.673Z,16.33
2022-09-03T22:10:16.748Z,16.31
2022-09-03T22:11:14.798Z,16.33
2022-09-03T22:12:14.699Z,16.31
2022-09-03T22:13:14.623Z,16.33
2022-09-03T22:14:14.605Z,16.33
2022-09-03T22:15:14.641Z,16.34
2022-09-03T22:16:14.656Z,16.31
2022-09-03T22:17:14.598Z,16.31
2022-09-03T22:18:14.577Z,16.33
2022-09-03T22:19:14.568Z,16.31
2022-09-03T22:20:14.577Z,16.31
2022-09-03T22:21:14.555Z,16.30
2022-09-03T22:22:14.522Z,16.27
2022-09-03T22:23:14.531Z,16.27
2022-09-03T22:24:14.500Z,16.26
2022-09-03T22:25:14.568Z,16.26
2022-09-03T22:26:14.493Z,16.25
2022-09-03T22:27:14.473Z,16.18
2022-09-03T22:28:14.539Z,16.18
2022-09-03T22:29:14.459Z,16.15
2022-09-03T22:30:14.460Z,16.14
2022-09-03T22:31:14.494Z,16.09
2022-09-03T22:32:14.420Z,16.09
2022-09-03T22:33:14.506Z,16.09
2022-09-03T22:34:14.425Z,16.07
2022-09-03T22:35:14.445Z,16.07
2022-09-03T22:36:14.562Z,16.07
2022-09-03T22:37:14.390Z,16.07
2022-09-03T22:38:14.367Z,16.07
2022-09-03T22:39:14.757Z,16.06
2022-09-03T22:40:14.364Z,16.06
2022-09-03T22:41:14.325Z,16.04
2022-09-03T22:42:14.340Z,16.04
2022-09-03T22:43:14.328Z,16.06
2022-09-03T22:44:14.306Z,16.06
2022-09-03T22:45:14.303Z,16.04
2022-09-03T22:46:14.378Z,16.07
2022-09-03T22:47:14.275Z,16.07
2022-09-03T22:48:14.262Z,16.07
2022-09-03T22:49:14.239Z,16.06
2022-09-03T22:50:14.252Z,16.09
2022-09-03T22:51:16.761Z,16.09
2022-09-03T22:52:14.211Z,16.14
2022-09-03T22:53:14.202Z,16.12
2022-09-03T22:54:14.196Z,16.12
2022-09-03T22:55:14.246Z,16.11
2022-09-03T22:56:14.178Z,16.11
2022-09-03T22:57:14.172Z,16.09
2022-09-03T22:58:14.143Z,16.09
2022-09-03T22:59:14.147Z,16.09
2022-09-03T23:00:14.249Z,16.12
2022-09-03T23:01:14.237Z,16.11
2022-09-03T23:02:14.112Z,16.12
2022-09-03T23:03:14.103Z,16.11
2022-09-03T23:04:14.085Z,16.11
2022-09-03T23:05:14.339Z,16.07
2022-09-03T23:06:14.060Z,16.09
2022-09-03T23:07:14.051Z,16.09
2022-09-03T23:08:14.036Z,16.06
2022-09-03T23:09:14.048Z,16.06
2022-09-03T23:10:14.046Z,16.04
2022-09-03T23:11:14.036Z,16.06
2022-09-03T23:12:14.005Z,16.03
2022-09-03T23:13:14.970Z,16.00
2022-09-03T23:14:14.025Z,16.01
2022-09-03T23:15:14.010Z,15.99
2022-09-03T23:16:13.994Z,16.00
2022-09-03T23:17:13.959Z,15.94
2022-09-03T23:18:13.945Z,15.96
2022-09-03T23:19:13.934Z,15.92
2022-09-03T23:20:44.573Z,15.92
2022-09-03T23:21:45.562Z,15.86
2022-09-03T23:22:45.521Z,15.85
2022-09-03T23:23:45.499Z,15.82
2022-09-03T23:24:45.523Z,15.84
2022-09-03T23:25:45.484Z,15.82
2022-09-03T23:26:45.481Z,15.81
2022-09-03T23:27:45.454Z,15.81
2022-09-03T23:28:45.458Z,15.81
2022-09-03T23:29:45.492Z,15.78
2022-09-03T23:30:45.450Z,15.78
2022-09-03T23:31:45.498Z,15.76
2022-09-03T23:32:45.430Z,15.75
2022-09-03T23:33:45.415Z,15.76
2022-09-03T23:34:45.427Z,15.76
2022-09-03T23:35:45.381Z,15.76
2022-09-03T23:37:10.202Z,15.76
2022-09-03T23:37:45.360Z,15.78
2022-09-03T23:38:45.351Z,15.78
2022-09-03T23:39:45.443Z,15.76
2022-09-03T23:40:45.337Z,15.75
2022-09-03T23:41:45.322Z,15.75
2022-09-03T23:42:45.318Z,15.75
2022-09-03T23:43:45.300Z,15.74
2022-09-03T23:44:45.334Z,15.74
2022-09-03T23:45:45.309Z,15.72
2022-09-03T23:46:45.264Z,15.72
2022-09-03T23:47:45.676Z,15.70
2022-09-03T23:48:45.260Z,15.72
2022-09-03T23:49:45.324Z,15.70
2022-09-03T23:50:45.232Z,15.72
2022-09-03T23:51:45.390Z,15.70
2022-09-03T23:52:45.203Z,15.70
2022-09-03T23:53:45.199Z,15.70
2022-09-03T23:54:45.200Z,15.70
2022-09-03T23:55:45.173Z,15.68
2022-09-03T23:56:45.541Z,15.70
2022-09-03T23:57:45.156Z,15.66
2022-09-03T23:58:45.162Z,15.66
2022-09-03T23:59:45.501Z,15.64
